Chemult, Oregon
Current Conditions -  °F | °C
As of 12:15 AM on Friday 28 Nov 2014 (Local Time) from KBDN Reporting Station
Clear Clear  
Wind Chill: 39°   Ceiling: Unl
Heat Index: 46°   Visibility: 10mi
Dew Point: 39°   Wind: 22mph
Humidity: 76%   Direction: 210°SSW
Pressure: 29.9"   Gusts: NA
Location:  43.22°N, 121.79°W
Report Text: KBDN 280815Z AUTO 21019KT 10SM CLR 08/04 A2990 RMK AO2
Loading
Personal Weather Stations






























Interactive Weather Map New forecast layout! Learn more

10-Day Weather Forecast

Advertisements
Track Severe Weather on mobile